createdAt,value
2023-02-24T00:01:18.891Z,59.17
2023-02-24T00:03:45.582Z,65.03
2023-02-24T00:06:12.216Z,60.93
2023-02-24T00:08:39.918Z,62.20
2023-02-24T00:11:14.397Z,57.83
2023-02-24T00:13:46.372Z,58.07
2023-02-24T00:16:17.704Z,59.40
2023-02-24T00:18:45.366Z,56.37
2023-02-24T00:21:14.987Z,56.47
2023-02-24T00:23:48.308Z,57.33
2023-02-24T00:26:16.135Z,57.87
2023-02-24T00:28:44.350Z,59.20
2023-02-24T00:31:16.780Z,58.70
2023-02-24T00:33:45.126Z,58.67
2023-02-24T00:36:24.045Z,61.90
2023-02-24T00:38:57.244Z,67.70
2023-02-24T00:41:32.182Z,68.07
2023-02-24T00:44:06.089Z,68.03
2023-02-24T00:46:44.749Z,69.27
2023-02-24T00:49:17.106Z,66.77
2023-02-24T00:51:48.851Z,65.37
2023-02-24T00:54:17.013Z,67.00
2023-02-24T00:56:45.997Z,66.73
2023-02-24T00:59:14.642Z,62.70
2023-02-24T01:01:42.814Z,64.27
2023-02-24T01:04:13.316Z,64.90
2023-02-24T01:06:45.696Z,59.57
2023-02-24T01:09:15.670Z,59.73
2023-02-24T01:12:22.711Z,58.87
2023-02-24T01:14:51.445Z,58.07
2023-02-24T01:17:19.207Z,56.33
2023-02-24T01:19:47.308Z,57.93
2023-02-24T01:22:15.042Z,57.80
2023-02-24T01:24:43.352Z,59.57
2023-02-24T01:27:12.587Z,60.63
2023-02-24T01:29:39.735Z,59.73
2023-02-24T01:32:16.953Z,54.67
2023-02-24T01:34:43.866Z,54.97
2023-02-24T01:37:10.376Z,51.70
2023-02-24T01:39:37.253Z,52.83
2023-02-24T01:42:04.911Z,50.80
2023-02-24T01:44:32.730Z,49.30
2023-02-24T01:47:03.689Z,48.90
2023-02-24T01:49:38.212Z,48.53
2023-02-24T01:52:08.415Z,48.03
2023-02-24T01:54:52.016Z,47.70
2023-02-24T01:57:19.947Z,48.93
2023-02-24T01:59:48.552Z,48.07
2023-02-24T02:02:15.601Z,47.53
2023-02-24T02:04:53.800Z,44.70
2023-02-24T02:07:23.654Z,43.27
2023-02-24T02:09:50.968Z,41.90
2023-02-24T02:12:17.699Z,42.20
2023-02-24T02:14:52.297Z,39.53
2023-02-24T02:17:51.268Z,40.03
2023-02-24T02:20:56.866Z,39.10
2023-02-24T02:23:58.033Z,38.10
2023-02-24T02:26:42.129Z,37.70
2023-02-24T02:29:11.758Z,37.30
2023-02-24T02:31:41.170Z,38.00
2023-02-24T02:34:35.151Z,35.57
2023-02-24T02:37:05.842Z,35.97
2023-02-24T02:40:21.135Z,35.33
2023-02-24T02:43:03.065Z,33.83
2023-02-24T02:45:35.411Z,33.23
2023-02-24T02:48:13.087Z,32.83
2023-02-24T02:50:45.922Z,33.20
2023-02-24T02:53:18.430Z,32.87
2023-02-24T02:55:49.389Z,34.00
2023-02-24T02:58:26.213Z,32.67
2023-02-24T03:01:02.534Z,27.87
2023-02-24T03:03:33.134Z,24.97
2023-02-24T03:06:04.005Z,22.47
2023-02-24T03:08:34.390Z,21.83
2023-02-24T03:11:01.962Z,20.80
2023-02-24T03:13:31.496Z,20.83
2023-02-24T03:16:08.841Z,21.20
2023-02-24T03:18:39.211Z,20.80
2023-02-24T03:21:13.209Z,20.97
2023-02-24T03:23:48.114Z,21.23
2023-02-24T03:26:41.381Z,21.57
2023-02-24T03:29:19.030Z,19.70
2023-02-24T03:31:52.056Z,22.10
2023-02-24T03:34:24.129Z,21.73
2023-02-24T03:36:50.617Z,21.10
2023-02-24T03:39:17.337Z,22.13
2023-02-24T03:41:57.752Z,22.13
2023-02-24T03:44:24.924Z,22.33
2023-02-24T03:46:55.858Z,22.97
2023-02-24T03:49:25.210Z,21.67
2023-02-24T03:52:00.909Z,20.83
2023-02-24T03:54:35.009Z,20.27
2023-02-24T03:57:55.001Z,20.97
2023-02-24T04:00:38.506Z,16.67
2023-02-24T04:03:13.381Z,16.67
2023-02-24T04:05:47.545Z,17.50
2023-02-24T04:08:15.783Z,17.70
2023-02-24T04:10:52.622Z,18.73
2023-02-24T04:13:52.897Z,19.13
2023-02-24T04:16:29.783Z,19.50
2023-02-24T04:18:59.978Z,19.03
2023-02-24T04:21:28.657Z,18.70
2023-02-24T04:23:55.896Z,18.20
2023-02-24T04:26:24.901Z,19.37
2023-02-24T04:28:52.590Z,20.03
2023-02-24T04:31:21.025Z,20.10
2023-02-24T04:33:50.293Z,19.73
2023-02-24T04:36:21.926Z,21.37
2023-02-24T04:38:48.697Z,22.67
2023-02-24T04:41:21.487Z,22.17
2023-02-24T04:43:50.715Z,22.63
2023-02-24T04:46:19.255Z,23.47
2023-02-24T04:48:46.026Z,22.80
2023-02-24T04:51:13.590Z,22.53
2023-02-24T04:53:40.674Z,24.27
2023-02-24T04:56:08.994Z,23.60
2023-02-24T04:58:38.027Z,23.43
2023-02-24T05:01:11.025Z,22.63
2023-02-24T05:03:38.604Z,23.87
2023-02-24T05:06:06.369Z,23.30
2023-02-24T05:08:33.068Z,22.20
2023-02-24T05:11:03.870Z,23.80
2023-02-24T05:13:32.012Z,24.40
2023-02-24T05:16:04.214Z,130.97
2023-02-24T05:18:36.930Z,28.27
2023-02-24T05:21:27.646Z,25.43
2023-02-24T05:23:54.883Z,21.07
2023-02-24T05:26:25.525Z,18.00
2023-02-24T05:28:54.382Z,18.47
2023-02-24T05:31:26.537Z,13.47
2023-02-24T05:33:57.880Z,13.37
2023-02-24T05:36:26.082Z,14.27
2023-02-24T05:38:57.836Z,13.57
2023-02-24T05:41:32.477Z,13.73
2023-02-24T05:44:02.334Z,14.20
2023-02-24T05:46:32.527Z,13.47
2023-02-24T05:49:08.952Z,13.90
2023-02-24T05:51:39.099Z,12.20
2023-02-24T05:54:13.708Z,11.83
2023-02-24T05:56:44.463Z,12.47
2023-02-24T05:59:12.422Z,13.27
2023-02-24T06:01:45.786Z,12.20
2023-02-24T06:04:20.793Z,9.03
2023-02-24T06:06:52.588Z,7.20
2023-02-24T06:09:23.050Z,6.40
2023-02-24T06:11:50.181Z,6.37
2023-02-24T06:14:17.130Z,6.37
2023-02-24T06:16:43.589Z,5.83
2023-02-24T06:19:12.303Z,5.73
2023-02-24T06:21:43.816Z,5.70
2023-02-24T06:24:14.833Z,5.37
2023-02-24T06:26:45.242Z,5.27
2023-02-24T06:29:14.450Z,4.83
2023-02-24T06:31:41.899Z,4.40
2023-02-24T06:34:13.884Z,4.47
2023-02-24T06:36:40.803Z,5.03
2023-02-24T06:39:08.149Z,5.13
2023-02-24T06:41:35.564Z,4.87
2023-02-24T06:44:02.035Z,4.83
2023-02-24T06:46:28.873Z,5.23
2023-02-24T06:48:56.387Z,6.53
2023-02-24T06:51:24.069Z,5.43
2023-02-24T06:53:52.198Z,5.60
2023-02-24T06:56:19.888Z,6.23
2023-02-24T06:58:55.379Z,5.23
2023-02-24T07:01:28.984Z,5.30
2023-02-24T07:04:17.500Z,4.50
2023-02-24T07:06:55.267Z,4.00
2023-02-24T07:09:24.657Z,5.10
2023-02-24T07:11:52.839Z,5.00
2023-02-24T07:14:21.720Z,4.50
2023-02-24T07:16:53.997Z,5.33
2023-02-24T07:19:24.095Z,5.23
2023-02-24T07:21:52.630Z,5.00
2023-02-24T07:24:32.910Z,5.00
2023-02-24T07:27:02.474Z,4.37
2023-02-24T07:29:30.559Z,4.83
2023-02-24T07:32:05.588Z,5.20
2023-02-24T07:34:33.766Z,5.13
2023-02-24T07:37:06.530Z,5.10
2023-02-24T07:39:33.710Z,4.37
2023-02-24T07:42:00.341Z,5.20
2023-02-24T07:44:29.300Z,5.57
2023-02-24T07:46:56.923Z,4.80
2023-02-24T07:49:29.946Z,4.50
2023-02-24T07:51:58.009Z,4.90
2023-02-24T07:54:29.864Z,4.60
2023-02-24T07:56:58.899Z,5.90
2023-02-24T07:59:28.202Z,4.63
2023-02-24T08:01:56.110Z,4.77
2023-02-24T08:04:28.486Z,4.47
2023-02-24T08:06:56.134Z,5.50
2023-02-24T08:09:43.948Z,4.80
2023-02-24T08:12:17.926Z,5.30
2023-02-24T08:14:52.346Z,5.30
2023-02-24T08:17:23.932Z,5.43
2023-02-24T08:20:00.924Z,5.50
2023-02-24T08:22:35.330Z,5.07
2023-02-24T08:25:05.846Z,5.00
2023-02-24T08:27:38.753Z,5.00
2023-02-24T08:30:07.428Z,6.47
2023-02-24T08:32:43.503Z,5.50
2023-02-24T08:35:15.597Z,5.50
2023-02-24T08:37:47.353Z,5.43
2023-02-24T08:40:33.986Z,5.77
2023-02-24T08:43:17.355Z,5.90
2023-02-24T08:45:59.383Z,7.13
2023-02-24T08:48:37.641Z,6.93
2023-02-24T08:51:10.146Z,7.90
2023-02-24T08:53:40.436Z,6.70
2023-02-24T08:56:11.284Z,4.73
2023-02-24T08:58:48.388Z,4.83
2023-02-24T09:01:19.999Z,5.40
2023-02-24T09:03:48.384Z,4.53
2023-02-24T09:06:17.879Z,8.83
2023-02-24T09:08:45.619Z,6.07
2023-02-24T09:11:15.135Z,4.00
2023-02-24T09:13:51.618Z,3.93
2023-02-24T09:16:19.775Z,5.03
2023-02-24T09:19:06.499Z,3.70
2023-02-24T09:21:48.024Z,4.13
2023-02-24T09:24:16.897Z,4.70
2023-02-24T09:26:43.583Z,4.40
2023-02-24T09:29:30.021Z,4.90
2023-02-24T09:32:04.527Z,4.43
2023-02-24T09:34:36.463Z,4.50
2023-02-24T09:37:04.604Z,5.00
2023-02-24T09:39:54.661Z,4.20
2023-02-24T09:42:23.684Z,4.53
2023-02-24T09:44:55.565Z,5.43
2023-02-24T09:47:39.446Z,4.20
2023-02-24T09:50:14.084Z,4.67
2023-02-24T09:52:41.341Z,4.97
2023-02-24T09:55:24.849Z,5.73
2023-02-24T09:58:26.977Z,6.73
2023-02-24T10:01:00.732Z,9.27
2023-02-24T10:03:47.952Z,9.97
2023-02-24T10:06:21.534Z,8.40
2023-02-24T10:09:13.611Z,7.00
2023-02-24T10:11:54.881Z,5.20
2023-02-24T10:14:51.140Z,4.20
2023-02-24T10:17:23.814Z,4.40
2023-02-24T10:20:00.160Z,4.33
2023-02-24T10:22:28.551Z,4.60
2023-02-24T10:25:25.912Z,4.93
2023-02-24T10:28:06.196Z,5.03
2023-02-24T10:31:10.205Z,4.50
2023-02-24T10:33:45.069Z,4.50
2023-02-24T10:36:18.287Z,4.90
2023-02-24T10:38:45.598Z,4.93
2023-02-24T10:41:14.521Z,5.63
2023-02-24T10:43:47.408Z,5.83
2023-02-24T10:46:42.784Z,5.90
2023-02-24T10:49:11.764Z,5.27
2023-02-24T10:51:44.678Z,5.27
2023-02-24T10:54:42.551Z,4.63
2023-02-24T10:57:38.291Z,5.53
2023-02-24T11:00:31.043Z,6.27
2023-02-24T11:03:08.199Z,6.03
2023-02-24T11:05:44.245Z,6.03
2023-02-24T11:08:15.825Z,4.93
2023-02-24T11:10:53.353Z,6.50
2023-02-24T11:13:39.360Z,6.20
2023-02-24T11:16:27.017Z,6.53
2023-02-24T11:18:54.569Z,7.80
2023-02-24T11:21:24.000Z,7.87
2023-02-24T11:23:57.246Z,9.07
2023-02-24T11:26:27.335Z,8.73
2023-02-24T11:29:23.983Z,8.50
2023-02-24T11:32:16.944Z,8.43
2023-02-24T11:34:58.185Z,7.67
2023-02-24T11:37:34.670Z,8.30
2023-02-24T11:40:09.467Z,7.53
2023-02-24T11:42:56.102Z,7.10
2023-02-24T11:45:31.826Z,7.40
2023-02-24T11:48:19.951Z,7.83
2023-02-24T11:51:05.922Z,6.43
2023-02-24T11:53:42.449Z,6.57
2023-02-24T11:56:29.458Z,6.83
2023-02-24T11:59:19.410Z,6.60
2023-02-24T12:01:52.600Z,5.93
2023-02-24T12:04:35.043Z,5.83
2023-02-24T12:07:08.279Z,5.90
2023-02-24T12:09:47.868Z,6.20
2023-02-24T12:12:21.157Z,6.53
2023-02-24T12:14:54.325Z,5.83
2023-02-24T12:17:29.873Z,7.40
2023-02-24T12:20:06.146Z,6.93
2023-02-24T12:22:56.802Z,7.37
2023-02-24T12:25:35.788Z,7.40
2023-02-24T12:28:18.315Z,8.87
2023-02-24T12:31:05.159Z,10.03
2023-02-24T12:33:43.948Z,8.80
2023-02-24T12:36:29.239Z,8.63
2023-02-24T12:39:09.447Z,7.60
2023-02-24T12:42:02.771Z,8.20
2023-02-24T12:44:47.792Z,8.63
2023-02-24T12:47:17.546Z,8.47
2023-02-24T12:50:06.894Z,8.63
2023-02-24T12:53:21.729Z,9.20
2023-02-24T12:56:06.220Z,8.17
2023-02-24T12:58:36.473Z,7.57
2023-02-24T13:01:15.096Z,8.10
2023-02-24T13:03:53.868Z,8.37
2023-02-24T13:06:30.602Z,8.80
2023-02-24T13:09:03.204Z,8.63
2023-02-24T13:11:38.918Z,8.90
2023-02-24T13:14:21.407Z,8.20
2023-02-24T13:16:48.143Z,8.27
2023-02-24T13:19:20.897Z,8.80
2023-02-24T13:22:27.340Z,9.60
2023-02-24T13:25:09.034Z,8.60
2023-02-24T13:27:38.825Z,8.80
2023-02-24T13:30:12.010Z,8.97
2023-02-24T13:32:47.471Z,8.90
2023-02-24T13:35:13.956Z,9.40
2023-02-24T13:37:42.393Z,9.20
2023-02-24T13:40:16.479Z,8.50
2023-02-24T13:43:04.769Z,9.33
2023-02-24T13:45:36.231Z,9.43
2023-02-24T13:48:14.811Z,9.90
2023-02-24T13:51:10.184Z,9.20
2023-02-24T13:53:57.702Z,10.00
2023-02-24T13:56:38.777Z,9.93
2023-02-24T13:59:53.228Z,9.27
2023-02-24T14:02:27.439Z,8.97
2023-02-24T14:04:58.683Z,9.77
2023-02-24T14:07:30.996Z,9.13
2023-02-24T14:10:06.383Z,10.63
2023-02-24T14:12:35.233Z,10.77
2023-02-24T14:15:03.515Z,10.77
2023-02-24T14:17:31.339Z,10.97
2023-02-24T14:20:09.881Z,12.33
2023-02-24T14:23:03.867Z,11.97
2023-02-24T14:25:36.586Z,13.37
2023-02-24T14:28:03.145Z,13.13
2023-02-24T14:30:38.672Z,12.63
2023-02-24T14:33:07.327Z,13.13
2023-02-24T14:35:46.490Z,11.27
2023-02-24T14:38:32.713Z,11.50
2023-02-24T14:40:59.325Z,12.37
2023-02-24T14:43:26.525Z,11.20
2023-02-24T14:45:54.018Z,11.57
2023-02-24T14:48:31.024Z,12.03
2023-02-24T14:51:09.491Z,10.80
2023-02-24T14:53:39.680Z,11.73
2023-02-24T14:56:06.696Z,10.63
2023-02-24T14:58:35.633Z,10.30
2023-02-24T15:01:24.035Z,10.63
2023-02-24T15:03:54.108Z,9.93
2023-02-24T15:06:31.415Z,9.47
2023-02-24T15:09:01.643Z,8.97
2023-02-24T15:11:30.621Z,8.30
2023-02-24T15:14:00.735Z,8.40
2023-02-24T15:16:36.310Z,8.40
2023-02-24T15:19:03.308Z,8.40
2023-02-24T15:21:31.260Z,8.20
2023-02-24T15:24:02.957Z,7.57
2023-02-24T15:26:32.731Z,8.07
2023-02-24T15:29:01.958Z,7.30
2023-02-24T15:31:29.448Z,7.43
2023-02-24T15:33:59.991Z,7.97
2023-02-24T15:36:36.174Z,7.80
2023-02-24T15:39:10.272Z,7.80
2023-02-24T15:41:43.181Z,8.00
2023-02-24T15:44:33.653Z,7.93
2023-02-24T15:47:02.035Z,7.97
2023-02-24T15:49:28.562Z,8.00
2023-02-24T15:51:55.705Z,7.70
2023-02-24T15:54:29.697Z,8.20
2023-02-24T15:57:00.766Z,6.90
2023-02-24T15:59:28.045Z,6.17
2023-02-24T16:01:54.654Z,5.63
2023-02-24T16:04:22.454Z,5.40
2023-02-24T16:06:54.958Z,6.87
2023-02-24T16:09:40.202Z,6.37
2023-02-24T16:12:15.865Z,6.60
2023-02-24T16:14:43.497Z,6.90
2023-02-24T16:17:40.182Z,8.90
2023-02-24T16:20:27.850Z,9.00
2023-02-24T16:22:56.428Z,12.03
2023-02-24T16:25:23.291Z,26.40
2023-02-24T16:27:50.167Z,9.40
2023-02-24T16:30:20.817Z,8.67
2023-02-24T16:32:49.083Z,9.33
2023-02-24T16:35:15.911Z,11.50
2023-02-24T16:37:46.221Z,14.00
2023-02-24T16:40:30.943Z,11.73
2023-02-24T16:42:57.789Z,11.10
2023-02-24T16:45:28.906Z,12.10
2023-02-24T16:47:57.063Z,11.33
2023-02-24T16:50:33.152Z,13.30
2023-02-24T16:53:00.207Z,12.67
2023-02-24T16:55:26.869Z,12.43
2023-02-24T16:57:53.544Z,12.33
2023-02-24T17:00:24.353Z,12.27
2023-02-24T17:02:51.979Z,12.07
2023-02-24T17:05:24.210Z,11.87
2023-02-24T17:07:53.313Z,11.73
2023-02-24T17:10:20.582Z,11.67
2023-02-24T17:12:47.387Z,11.77
2023-02-24T17:15:17.236Z,11.57
2023-02-24T17:17:43.802Z,11.50
2023-02-24T17:20:15.768Z,11.67
2023-02-24T17:22:43.226Z,12.20
2023-02-24T17:25:15.569Z,12.47
2023-02-24T17:27:42.255Z,11.33
2023-02-24T17:30:13.340Z,10.70
2023-02-24T17:32:39.835Z,9.83
2023-02-24T17:35:06.836Z,10.00
2023-02-24T17:37:33.454Z,10.10
2023-02-24T17:40:00.035Z,10.00
2023-02-24T17:42:26.776Z,9.77
2023-02-24T17:44:53.337Z,9.13
2023-02-24T17:47:19.844Z,9.30
2023-02-24T17:49:46.624Z,9.63
2023-02-24T17:52:13.494Z,9.93
2023-02-24T17:54:40.966Z,9.93
2023-02-24T17:57:09.024Z,11.20
2023-02-24T17:59:36.506Z,11.73
2023-02-24T18:02:03.679Z,10.80
2023-02-24T18:04:30.861Z,13.00
2023-02-24T18:06:57.377Z,12.13
2023-02-24T18:09:23.884Z,12.73
2023-02-24T18:11:50.484Z,12.30
2023-02-24T18:14:16.946Z,13.07
2023-02-24T18:16:43.800Z,12.87
2023-02-24T18:19:10.206Z,12.53
2023-02-24T18:21:36.676Z,10.77
2023-02-24T18:24:03.442Z,11.17
2023-02-24T18:26:30.200Z,9.40
2023-02-24T18:28:58.263Z,9.17
2023-02-24T18:31:26.660Z,9.23
2023-02-24T18:33:54.063Z,9.90
2023-02-24T18:36:21.288Z,9.20
2023-02-24T18:38:48.174Z,9.47
2023-02-24T18:41:20.934Z,9.57
2023-02-24T18:43:48.947Z,9.00
2023-02-24T18:46:16.135Z,8.53
2023-02-24T18:48:46.823Z,8.07
2023-02-24T18:51:17.080Z,7.43
2023-02-24T18:53:43.666Z,7.03
2023-02-24T18:56:13.508Z,6.87
2023-02-24T18:58:40.789Z,8.47
2023-02-24T19:01:13.072Z,7.50
2023-02-24T19:03:40.436Z,7.87
2023-02-24T19:06:07.716Z,7.77
2023-02-24T19:08:34.145Z,6.30
2023-02-24T19:11:07.491Z,6.07
2023-02-24T19:13:33.988Z,6.20
2023-02-24T19:16:00.601Z,6.57
2023-02-24T19:18:27.176Z,6.90
2023-02-24T19:20:54.480Z,6.67
2023-02-24T19:23:21.451Z,8.83
2023-02-24T19:25:47.987Z,8.90
2023-02-24T19:28:14.414Z,19.00
2023-02-24T19:30:41.302Z,10.37
2023-02-24T19:33:07.881Z,8.83
2023-02-24T19:35:34.557Z,7.80
2023-02-24T19:38:01.284Z,7.20
2023-02-24T19:40:27.868Z,10.97
2023-02-24T19:42:54.365Z,7.20
2023-02-24T19:45:21.473Z,5.90
2023-02-24T19:47:47.983Z,6.43
2023-02-24T19:50:16.862Z,6.10
2023-02-24T19:52:43.481Z,8.40
2023-02-24T19:55:11.568Z,10.20
2023-02-24T19:57:38.145Z,8.00
2023-02-24T20:00:06.147Z,7.20
2023-02-24T20:02:32.707Z,6.87
2023-02-24T20:04:59.537Z,7.00
2023-02-24T20:07:26.419Z,10.90
2023-02-24T20:09:54.759Z,9.33
2023-02-24T20:12:21.312Z,7.77
2023-02-24T20:14:47.830Z,9.43
2023-02-24T20:17:14.321Z,10.33
2023-02-24T20:19:40.829Z,11.23
2023-02-24T20:22:07.459Z,12.07
2023-02-24T20:24:35.077Z,12.43
2023-02-24T20:27:04.667Z,12.73
2023-02-24T20:29:36.000Z,13.17
2023-02-24T20:32:03.227Z,13.40
2023-02-24T20:34:29.916Z,14.03
2023-02-24T20:36:56.485Z,12.80
2023-02-24T20:39:24.818Z,13.73
2023-02-24T20:41:53.596Z,14.60
2023-02-24T20:44:20.768Z,14.67
2023-02-24T20:46:47.488Z,14.50
2023-02-24T20:49:16.806Z,14.53
2023-02-24T20:51:43.730Z,14.43
2023-02-24T20:54:11.731Z,14.30
2023-02-24T20:56:39.944Z,15.23
2023-02-24T20:59:07.714Z,14.93
2023-02-24T21:01:35.176Z,15.37
2023-02-24T21:04:02.326Z,15.53
2023-02-24T21:06:29.243Z,15.53
2023-02-24T21:08:58.983Z,15.70
2023-02-24T21:11:26.749Z,15.90
2023-02-24T21:13:53.620Z,15.73
2023-02-24T21:16:21.019Z,16.03
2023-02-24T21:18:48.959Z,16.93
2023-02-24T21:21:15.914Z,15.53
2023-02-24T21:23:43.164Z,16.73
2023-02-24T21:26:10.462Z,15.93
2023-02-24T21:28:37.636Z,17.07
2023-02-24T21:31:09.780Z,15.97
2023-02-24T21:33:36.905Z,15.93
2023-02-24T21:36:10.565Z,16.93
2023-02-24T21:38:37.930Z,16.50
2023-02-24T21:41:08.572Z,15.27
2023-02-24T21:43:35.418Z,15.20
2023-02-24T21:46:05.407Z,16.27
2023-02-24T21:48:35.558Z,15.47
2023-02-24T21:51:04.418Z,16.67
2023-02-24T21:53:35.360Z,15.90
2023-02-24T21:56:23.653Z,15.67
2023-02-24T21:58:56.417Z,15.33
2023-02-24T22:01:34.212Z,15.53
2023-02-24T22:04:03.165Z,15.60
2023-02-24T22:06:31.899Z,15.37
2023-02-24T22:08:59.843Z,15.50
2023-02-24T22:11:26.391Z,16.73
2023-02-24T22:13:52.859Z,16.53
2023-02-24T22:16:24.602Z,15.33
2023-02-24T22:18:52.812Z,15.90
2023-02-24T22:21:21.989Z,16.87
2023-02-24T22:23:50.540Z,15.80
2023-02-24T22:26:17.660Z,15.60
2023-02-24T22:28:46.671Z,15.90
2023-02-24T22:31:15.423Z,16.83
2023-02-24T22:33:43.245Z,15.63
2023-02-24T22:36:10.828Z,15.23
2023-02-24T22:38:38.676Z,15.80
2023-02-24T22:41:11.413Z,16.50
2023-02-24T22:43:37.950Z,17.13
2023-02-24T22:46:06.574Z,17.17
2023-02-24T22:48:35.930Z,16.03
2023-02-24T22:51:04.336Z,17.17
2023-02-24T22:53:33.127Z,16.67
2023-02-24T22:56:00.160Z,15.20
2023-02-24T22:58:26.663Z,17.90
2023-02-24T23:00:54.525Z,16.83
2023-02-24T23:03:23.489Z,16.53
2023-02-24T23:06:04.527Z,16.10
2023-02-24T23:08:33.632Z,17.40
2023-02-24T23:11:12.402Z,17.20
2023-02-24T23:13:40.297Z,17.73
2023-02-24T23:16:09.804Z,17.90
2023-02-24T23:18:37.206Z,17.47
2023-02-24T23:21:06.897Z,17.50
2023-02-24T23:23:33.775Z,17.27
2023-02-24T23:26:00.821Z,16.40
2023-02-24T23:28:27.836Z,16.17
2023-02-24T23:30:55.442Z,15.40
2023-02-24T23:33:22.734Z,15.00
2023-02-24T23:35:49.870Z,15.37
2023-02-24T23:38:16.713Z,14.63
2023-02-24T23:40:49.956Z,15.43
2023-02-24T23:43:17.353Z,14.37
2023-02-24T23:45:44.369Z,14.63
2023-02-24T23:48:13.071Z,14.67
2023-02-24T23:50:41.789Z,15.07
2023-02-24T23:53:08.949Z,13.60
2023-02-24T23:55:35.871Z,13.57
2023-02-24T23:58:03.470Z,13.77
